Time;durP1;ratioP1;P1;durP2;ratioP2;P2;SDS_P1;SDS_P2;PMS_P1;PMS_P2;Temp;Humidity;BMP_temperature;BMP_pressure;BME280_temperature;BME280_humidity;BME280_pressure;Samples;Min_cycle;Max_cycle;Signal;HPM_P1;HPM_P2
2021/08/20 00:00:33;;;;;;;3.10;2.90;;;23.70;54.60;;;;;;5018577;28;20434;-76
2021/08/20 00:03:01;;;;;;;3.33;3.13;;;23.70;54.50;;;;;;5023978;28;20451;-76
2021/08/20 00:05:31;;;;;;;3.77;3.47;;;23.70;54.50;;;;;;5022940;28;20456;-75
2021/08/20 00:07:59;;;;;;;3.30;3.00;;;23.70;54.60;;;;;;5025540;28;20451;-74
2021/08/20 00:10:27;;;;;;;3.43;3.13;;;23.70;54.70;;;;;;5022050;28;20438;-74
2021/08/20 00:12:54;;;;;;;3.20;3.00;;;23.60;54.70;;;;;;5033038;28;20458;-76
2021/08/20 00:15:23;;;;;;;3.20;2.90;;;23.60;54.60;;;;;;5025275;28;20462;-77
2021/08/20 00:17:51;;;;;;;3.10;2.80;;;23.60;54.70;;;;;;5019156;28;20505;-75
2021/08/20 00:20:20;;;;;;;3.13;2.90;;;23.60;54.70;;;;;;5022519;28;20432;-76
2021/08/20 00:22:49;;;;;;;3.47;3.20;;;23.60;54.80;;;;;;5021372;28;20432;-77
2021/08/20 00:25:18;;;;;;;3.07;2.87;;;23.60;54.70;;;;;;5027062;28;20442;-75
2021/08/20 00:27:47;;;;;;;3.17;2.87;;;23.60;54.60;;;;;;5020405;28;20432;-74
2021/08/20 00:30:15;;;;;;;3.63;2.90;;;23.60;54.70;;;;;;5023311;28;20467;-75
2021/08/20 00:32:44;;;;;;;3.23;3.00;;;23.60;54.70;;;;;;5026954;28;20479;-74
2021/08/20 00:35:12;;;;;;;3.67;3.30;;;23.60;54.80;;;;;;5026859;28;20516;-76
2021/08/20 00:37:39;;;;;;;2.93;2.73;;;23.60;54.80;;;;;;5021686;28;20541;-74
2021/08/20 00:40:10;;;;;;;4.13;3.70;;;23.60;54.80;;;;;;5028187;28;20505;-74
2021/08/20 00:42:38;;;;;;;2.80;2.70;;;23.50;54.80;;;;;;5026258;28;20488;-74
2021/08/20 00:45:07;;;;;;;3.13;2.83;;;23.60;54.80;;;;;;5018996;28;20433;-75
2021/08/20 00:47:35;;;;;;;2.80;2.60;;;23.60;54.80;;;;;;5026891;28;20468;-73
2021/08/20 00:50:04;;;;;;;3.00;2.80;;;23.60;54.80;;;;;;5032418;28;20448;-72
2021/08/20 00:52:32;;;;;;;2.67;2.50;;;23.60;54.90;;;;;;5021347;28;20511;-73
2021/08/20 00:55:00;;;;;;;2.40;2.30;;;23.50;54.80;;;;;;5027284;28;20451;-73
2021/08/20 00:57:30;;;;;;;2.80;2.70;;;23.50;54.80;;;;;;5021542;28;20478;-73
2021/08/20 00:59:58;;;;;;;2.30;2.20;;;23.60;54.90;;;;;;5024173;28;20455;-73
2021/08/20 01:02:26;;;;;;;2.40;2.30;;;23.50;54.80;;;;;;5026693;28;20430;-73
2021/08/20 01:04:54;;;;;;;2.47;2.37;;;23.50;54.70;;;;;;5031010;28;20422;-74
2021/08/20 01:07:22;;;;;;;2.60;2.50;;;23.50;54.70;;;;;;5031842;28;20447;-73
2021/08/20 01:09:50;;;;;;;2.90;2.70;;;23.50;54.80;;;;;;5033722;28;20451;-73
2021/08/20 01:12:18;;;;;;;2.63;2.53;;;23.50;54.80;;;;;;5032852;28;20552;-74
2021/08/20 01:14:49;;;;;;;2.53;2.43;;;23.50;54.80;;;;;;5030737;28;20446;-74
2021/08/20 01:17:17;;;;;;;2.53;2.43;;;23.50;54.90;;;;;;5025768;28;20481;-73
2021/08/20 01:19:48;;;;;;;2.13;2.03;;;23.50;54.80;;;;;;5031265;28;20492;-73
2021/08/20 01:22:16;;;;;;;3.00;2.80;;;23.50;54.80;;;;;;5031174;28;20453;-73
2021/08/20 01:24:44;;;;;;;2.60;2.50;;;23.50;54.80;;;;;;5020137;28;20434;-73
2021/08/20 01:27:14;;;;;;;2.13;2.03;;;23.50;54.80;;;;;;5024583;28;20453;-74
2021/08/20 01:29:42;;;;;;;2.43;2.23;;;23.50;54.80;;;;;;5021323;28;20489;-73
2021/08/20 01:32:10;;;;;;;2.20;2.10;;;23.50;54.80;;;;;;5019149;28;20480;-73
2021/08/20 01:34:38;;;;;;;2.40;2.20;;;23.50;54.80;;;;;;5028227;28;20556;-73
2021/08/20 01:37:06;;;;;;;2.20;2.10;;;23.50;54.80;;;;;;5018008;28;20453;-73
2021/08/20 01:39:34;;;;;;;4.60;2.33;;;23.50;54.80;;;;;;5024033;28;20527;-73
2021/08/20 01:42:02;;;;;;;2.27;2.17;;;23.50;54.80;;;;;;5022800;28;20438;-73
2021/08/20 01:44:31;;;;;;;2.10;2.00;;;23.50;54.80;;;;;;5029381;28;20462;-74
2021/08/20 01:46:59;;;;;;;2.37;2.27;;;23.50;54.80;;;;;;5015114;28;20511;-76
2021/08/20 01:49:27;;;;;;;2.20;2.10;;;23.50;54.70;;;;;;5028425;28;20444;-74
2021/08/20 01:51:57;;;;;;;1.90;1.80;;;23.50;54.80;;;;;;5024056;28;20414;-74
2021/08/20 01:54:25;;;;;;;2.30;2.20;;;23.50;54.80;;;;;;5023934;28;20437;-74
2021/08/20 01:56:53;;;;;;;1.90;1.80;;;23.50;54.80;;;;;;5023993;28;20464;-73
2021/08/20 01:59:21;;;;;;;2.13;2.03;;;23.50;54.70;;;;;;5030557;28;20519;-73
2021/08/20 02:01:50;;;;;;;2.10;2.00;;;23.50;54.80;;;;;;5034527;28;20513;-73
2021/08/20 02:04:19;;;;;;;2.00;1.90;;;23.50;54.80;;;;;;5030988;28;20445;-73
2021/08/20 02:06:47;;;;;;;2.30;2.20;;;23.50;54.80;;;;;;5026454;28;20478;-73
2021/08/20 02:09:15;;;;;;;2.37;2.17;;;23.50;54.80;;;;;;5033296;28;20486;-73
2021/08/20 02:11:43;;;;;;;2.13;2.03;;;23.50;54.80;;;;;;5024176;28;20494;-74
2021/08/20 02:14:11;;;;;;;1.87;1.77;;;23.50;54.90;;;;;;5024010;28;20436;-74
2021/08/20 02:16:39;;;;;;;1.70;1.60;;;23.50;54.80;;;;;;5027117;28;20447;-74
2021/08/20 02:19:09;;;;;;;2.20;2.10;;;23.40;54.70;;;;;;5027012;28;20439;-73
2021/08/20 02:21:37;;;;;;;1.60;1.60;;;23.40;54.70;;;;;;5027614;28;20477;-73
2021/08/20 02:24:05;;;;;;;1.83;1.73;;;23.40;54.70;;;;;;5027190;28;20467;-73
2021/08/20 02:26:35;;;;;;;1.50;1.50;;;23.40;54.70;;;;;;5027597;28;20455;-73
2021/08/20 02:29:03;;;;;;;1.80;1.70;;;23.40;54.90;;;;;;5027265;28;20457;-73
2021/08/20 02:31:31;;;;;;;1.80;1.70;;;23.40;54.70;;;;;;5027245;28;20440;-73
2021/08/20 02:33:59;;;;;;;2.53;2.33;;;23.40;54.70;;;;;;5025077;28;20422;-74
2021/08/20 02:36:28;;;;;;;2.30;2.20;;;23.40;54.70;;;;;;5026868;28;20431;-73
2021/08/20 02:38:56;;;;;;;4.40;1.87;;;23.40;54.70;;;;;;5027478;28;20515;-74
2021/08/20 02:41:25;;;;;;;1.60;1.60;;;23.40;54.80;;;;;;5026937;28;20453;-73
2021/08/20 02:43:53;;;;;;;1.70;1.70;;;23.40;54.70;;;;;;5029154;28;20483;-73
2021/08/20 02:46:21;;;;;;;1.50;1.50;;;23.40;54.80;;;;;;5027218;28;20474;-73
2021/08/20 02:48:49;;;;;;;1.90;1.80;;;23.40;54.80;;;;;;5026833;28;20462;-73
2021/08/20 02:51:17;;;;;;;1.63;1.53;;;23.40;54.80;;;;;;5026954;28;20426;-73
2021/08/20 02:53:46;;;;;;;2.10;2.00;;;23.30;54.70;;;;;;5027082;28;20399;-73
2021/08/20 02:56:14;;;;;;;1.40;1.40;;;23.40;54.80;;;;;;5026623;28;20457;-73
2021/08/20 02:58:42;;;;;;;1.90;1.80;;;23.40;54.90;;;;;;5026527;28;20475;-73
2021/08/20 03:01:10;;;;;;;1.47;1.37;;;23.40;54.80;;;;;;5031999;28;20558;-74
2021/08/20 03:03:38;;;;;;;1.80;1.70;;;23.40;54.80;;;;;;5025973;28;20507;-73
2021/08/20 03:06:06;;;;;;;1.57;1.50;;;23.30;54.70;;;;;;5026922;28;20422;-73
2021/08/20 03:08:33;;;;;;;1.77;1.67;;;23.40;54.90;;;;;;5026586;28;20445;-73
2021/08/20 03:11:05;;;;;;;1.63;1.53;;;23.30;54.70;;;;;;5030518;28;20485;-73
2021/08/20 03:13:33;;;;;;;1.10;1.10;;;23.30;54.80;;;;;;5018844;28;20464;-73
2021/08/20 03:16:01;;;;;;;1.70;1.60;;;23.30;55.40;;;;;;5026745;28;20502;-74
2021/08/20 03:18:29;;;;;;;1.63;1.30;;;23.30;54.80;;;;;;5026198;28;20458;-75
2021/08/20 03:20:57;;;;;;;1.60;1.50;;;23.30;54.80;;;;;;5026253;28;20526;-73
2021/08/20 03:23:27;;;;;;;1.70;1.60;;;23.30;54.90;;;;;;5026221;28;20539;-73
2021/08/20 03:25:55;;;;;;;1.53;1.40;;;23.30;54.90;;;;;;5025923;28;20443;-73
2021/08/20 03:28:24;;;;;;;1.40;1.40;;;23.30;55.00;;;;;;5025895;28;20444;-73
2021/08/20 03:30:52;;;;;;;1.40;1.40;;;23.30;55.00;;;;;;5026133;28;20414;-74
2021/08/20 03:33:20;;;;;;;1.70;1.60;;;23.30;55.00;;;;;;5026254;28;20519;-74
2021/08/20 03:35:48;;;;;;;1.33;1.33;;;23.40;55.10;;;;;;5025681;28;20484;-73
2021/08/20 03:38:19;;;;;;;1.20;1.20;;;23.40;55.10;;;;;;5026134;28;20467;-73
2021/08/20 03:40:49;;;;;;;1.80;1.70;;;23.30;55.10;;;;;;5025988;28;20417;-73
2021/08/20 03:43:17;;;;;;;1.50;1.50;;;23.30;55.20;;;;;;5025448;28;20483;-73
2021/08/20 03:45:46;;;;;;;1.33;1.33;;;23.30;55.10;;;;;;5045872;28;20546;-73
2021/08/20 03:48:14;;;;;;;1.63;1.63;;;23.40;55.30;;;;;;5045161;28;20541;-74
2021/08/20 03:50:42;;;;;;;1.47;1.40;;;23.30;55.30;;;;;;5045811;28;20443;-73
2021/08/20 03:53:10;;;;;;;1.50;1.40;;;23.30;55.30;;;;;;5028793;28;20483;-73
2021/08/20 03:55:38;;;;;;;2.17;1.40;;;23.30;55.40;;;;;;5030672;28;20451;-76
2021/08/20 03:58:06;;;;;;;1.20;1.17;;;23.30;55.40;;;;;;5034690;28;20545;-75
2021/08/20 04:00:35;;;;;;;1.20;1.20;;;23.40;55.50;;;;;;5034142;28;20526;-76
2021/08/20 04:03:05;;;;;;;1.93;1.50;;;23.30;55.40;;;;;;5029199;28;20431;-77
2021/08/20 04:05:33;;;;;;;1.77;1.67;;;23.30;56.10;;;;;;5025272;28;20498;-77
2021/08/20 04:08:01;;;;;;;1.27;1.27;;;23.30;55.50;;;;;;5025030;28;20443;-77
2021/08/20 04:10:29;;;;;;;1.60;1.50;;;23.30;55.60;;;;;;5024443;28;20454;-77
2021/08/20 04:12:57;;;;;;;1.53;1.43;;;23.30;55.60;;;;;;5024714;28;20459;-77
2021/08/20 04:15:26;;;;;;;1.40;1.40;;;23.30;55.60;;;;;;5024845;28;20519;-77
2021/08/20 04:17:55;;;;;;;1.57;1.47;;;23.30;55.60;;;;;;5024606;28;20443;-77
2021/08/20 04:20:24;;;;;;;1.63;1.40;;;23.30;55.60;;;;;;5024364;28;20501;-75
2021/08/20 04:22:53;;;;;;;1.90;1.40;;;23.30;55.70;;;;;;5024535;28;20494;-75
2021/08/20 04:25:24;;;;;;;1.60;1.50;;;23.30;55.70;;;;;;5024689;28;20471;-76
2021/08/20 04:27:52;;;;;;;1.50;1.40;;;23.30;55.70;;;;;;5024069;28;20463;-76
2021/08/20 04:30:20;;;;;;;1.43;1.43;;;23.30;55.80;;;;;;5024527;28;20471;-76
2021/08/20 04:32:49;;;;;;;1.13;1.13;;;23.30;55.80;;;;;;5024145;28;20414;-76
2021/08/20 04:35:17;;;;;;;1.63;1.53;;;23.30;55.90;;;;;;5024264;28;20523;-74
2021/08/20 04:37:46;;;;;;;1.30;1.30;;;23.30;55.80;;;;;;5024273;28;20572;-76
2021/08/20 04:40:15;;;;;;;1.73;1.63;;;23.30;55.90;;;;;;5024301;28;20467;-74
2021/08/20 04:42:42;;;;;;;1.53;1.43;;;23.30;56.00;;;;;;5023483;28;20489;-74
2021/08/20 04:45:12;;;;;;;2.60;1.30;;;23.30;56.00;;;;;;5023828;28;20442;-75
2021/08/20 04:47:40;;;;;;;1.67;1.57;;;23.30;56.10;;;;;;5023678;28;20436;-75
2021/08/20 04:50:09;;;;;;;1.50;1.50;;;23.30;56.10;;;;;;5024266;28;20431;-74
2021/08/20 04:52:37;;;;;;;1.50;1.40;;;23.30;56.10;;;;;;5024212;28;20475;-74
2021/08/20 04:55:07;;;;;;;1.40;1.30;;;23.30;56.10;;;;;;5024168;28;20430;-75
2021/08/20 04:57:35;;;;;;;1.50;1.40;;;23.30;56.10;;;;;;5024012;28;20494;-75
2021/08/20 05:00:06;;;;;;;1.90;1.80;;;23.30;56.00;;;;;;5023942;28;20435;-75
2021/08/20 05:02:35;;;;;;;1.83;1.73;;;23.30;56.10;;;;;;5023648;28;20471;-75
2021/08/20 05:05:05;;;;;;;1.60;1.47;;;23.30;56.10;;;;;;5018895;28;20454;-75
2021/08/20 05:07:35;;;;;;;2.40;1.90;;;23.30;56.20;;;;;;5023592;28;20447;-75
2021/08/20 05:10:06;;;;;;;2.77;1.80;;;23.30;56.20;;;;;;5023535;28;20451;-77
2021/08/20 05:12:35;;;;;;;1.93;1.83;;;23.30;56.20;;;;;;5023507;28;20402;-74
2021/08/20 05:15:03;;;;;;;1.77;1.60;;;23.30;56.20;;;;;;5023819;28;20520;-74
2021/08/20 05:17:31;;;;;;;2.00;1.90;;;23.30;56.20;;;;;;5023392;28;20567;-75
2021/08/20 05:19:59;;;;;;;1.63;1.53;;;23.30;56.20;;;;;;5023735;28;20494;-75
2021/08/20 05:22:27;;;;;;;1.70;1.60;;;23.30;56.20;;;;;;5023601;28;20443;-75
2021/08/20 05:24:55;;;;;;;1.77;1.77;;;23.30;56.20;;;;;;5023217;28;20539;-75
2021/08/20 05:27:23;;;;;;;1.80;1.70;;;23.40;56.20;;;;;;5022653;28;20542;-75
2021/08/20 05:29:52;;;;;;;1.77;1.67;;;23.40;56.30;;;;;;5023050;28;20534;-75
2021/08/20 05:32:20;;;;;;;1.73;1.63;;;23.40;56.20;;;;;;5023289;28;20417;-75
2021/08/20 05:34:48;;;;;;;2.10;1.90;;;23.50;56.20;;;;;;5023400;28;20426;-75
2021/08/20 05:37:16;;;;;;;1.87;1.77;;;23.50;56.10;;;;;;5023451;28;20439;-75
2021/08/20 05:39:44;;;;;;;1.87;1.77;;;23.50;56.10;;;;;;5023391;28;20543;-74
2021/08/20 05:42:12;;;;;;;2.10;2.00;;;23.50;56.10;;;;;;5023496;28;20534;-74
2021/08/20 05:44:40;;;;;;;2.00;1.90;;;23.50;56.10;;;;;;5022714;28;20438;-74
2021/08/20 05:47:11;;;;;;;2.00;1.90;;;23.50;56.20;;;;;;5023264;28;20421;-75
2021/08/20 05:49:39;;;;;;;2.23;2.13;;;23.50;56.20;;;;;;5022833;28;20502;-74
2021/08/20 05:52:07;;;;;;;1.97;1.87;;;23.50;56.10;;;;;;5023115;28;20435;-75
2021/08/20 05:54:36;;;;;;;1.63;1.63;;;23.50;56.20;;;;;;5023415;28;20443;-75
2021/08/20 05:57:04;;;;;;;2.20;2.10;;;23.50;56.20;;;;;;5027510;28;20514;-75
2021/08/20 05:59:32;;;;;;;1.77;1.73;;;23.50;56.10;;;;;;5027069;28;20445;-74
2021/08/20 06:02:00;;;;;;;2.13;2.00;;;23.50;56.10;;;;;;5026963;28;20434;-74
2021/08/20 06:04:29;;;;;;;2.10;2.00;;;23.50;56.10;;;;;;5026795;28;20475;-75
2021/08/20 06:06:57;;;;;;;2.07;1.87;;;23.60;56.20;;;;;;5027346;28;20435;-74
2021/08/20 06:09:25;;;;;;;1.97;1.87;;;23.50;56.10;;;;;;5026199;28;20565;-75
2021/08/20 06:11:53;;;;;;;2.20;2.10;;;23.60;56.30;;;;;;5025527;28;20467;-74
2021/08/20 06:14:21;;;;;;;2.30;2.20;;;23.60;56.30;;;;;;5025360;28;20439;-73
2021/08/20 06:16:54;;;;;;;2.30;2.20;;;23.60;56.30;;;;;;5025680;28;20518;-74
2021/08/20 06:19:22;;;;;;;2.20;2.10;;;23.60;56.30;;;;;;5025343;28;20431;-73
2021/08/20 06:21:51;;;;;;;2.53;2.43;;;23.70;56.30;;;;;;5025550;28;20438;-73
2021/08/20 06:24:19;;;;;;;2.30;2.20;;;23.70;56.30;;;;;;5025369;28;20431;-74
2021/08/20 06:26:47;;;;;;;2.70;2.50;;;23.70;56.20;;;;;;5025387;28;20470;-73
2021/08/20 06:29:16;;;;;;;2.77;2.57;;;23.70;56.20;;;;;;5025695;28;20427;-73
2021/08/20 06:31:47;;;;;;;2.47;2.37;;;23.70;56.20;;;;;;5025667;28;20451;-74
2021/08/20 06:34:15;;;;;;;2.67;2.57;;;23.70;56.20;;;;;;5025689;28;20451;-73
2021/08/20 06:36:43;;;;;;;2.33;2.20;;;23.70;56.20;;;;;;5024989;28;20478;-73
2021/08/20 06:39:12;;;;;;;2.10;2.00;;;23.70;56.30;;;;;;5024939;28;20414;-74
2021/08/20 06:41:40;;;;;;;2.33;2.23;;;23.70;56.40;;;;;;5025587;28;20449;-73
2021/08/20 06:44:09;;;;;;;2.30;2.20;;;23.70;56.40;;;;;;5025728;28;20543;-74
2021/08/20 06:46:36;;;;;;;3.40;3.20;;;23.70;56.20;;;;;;5025584;28;20558;-73
2021/08/20 06:49:04;;;;;;;3.00;2.80;;;23.80;56.30;;;;;;5024806;28;20463;-74
2021/08/20 06:51:32;;;;;;;2.70;2.60;;;23.80;56.30;;;;;;5025228;28;20522;-73
2021/08/20 06:54:02;;;;;;;2.53;2.43;;;23.80;56.20;;;;;;5025130;28;20546;-74
2021/08/20 06:56:32;;;;;;;2.87;2.70;;;23.90;56.30;;;;;;5025532;28;20430;-74
2021/08/20 06:58:59;;;;;;;2.87;2.67;;;23.90;56.30;;;;;;5025229;28;20539;-73
2021/08/20 07:01:27;;;;;;;2.60;2.40;;;24.00;56.30;;;;;;5022321;28;20423;-73
2021/08/20 07:03:56;;;;;;;3.00;2.80;;;24.10;56.10;;;;;;5020274;28;20439;-73
2021/08/20 07:06:25;;;;;;;2.57;2.47;;;24.30;56.00;;;;;;5023755;28;20558;-73
2021/08/20 07:08:54;;;;;;;2.78;2.67;;;24.40;55.80;;;;;;5005079;28;1031024;-78
2021/08/20 07:11:24;;;;;;;2.70;2.60;;;24.50;55.50;;;;;;5025710;28;20230;-74
2021/08/20 07:13:53;;;;;;;2.83;2.63;;;24.60;55.40;;;;;;5025401;28;20431;-73
2021/08/20 07:16:21;;;;;;;2.60;2.40;;;24.60;55.20;;;;;;5025525;28;20497;-74
2021/08/20 07:18:52;;;;;;;2.60;2.50;;;24.60;55.00;;;;;;5025147;28;20515;-73
2021/08/20 07:21:19;;;;;;;2.30;2.20;;;24.60;55.10;;;;;;5025386;28;20470;-73
2021/08/20 07:23:47;;;;;;;3.10;2.87;;;24.50;55.30;;;;;;5025343;28;20462;-74
2021/08/20 07:26:16;;;;;;;2.97;2.83;;;24.50;55.40;;;;;;5022725;28;20452;-74
2021/08/20 07:28:44;;;;;;;2.87;2.70;;;24.70;55.60;;;;;;5026838;28;20476;-75
2021/08/20 07:31:14;;;;;;;2.70;2.60;;;24.80;55.30;;;;;;5021856;28;20540;-76
2021/08/20 07:33:42;;;;;;;2.60;2.50;;;24.90;55.20;;;;;;5037676;28;20431;-76
2021/08/20 07:36:10;;;;;;;2.70;2.60;;;25.00;55.10;;;;;;5045997;28;20409;-76
2021/08/20 07:38:38;;;;;;;2.23;2.13;;;25.10;54.90;;;;;;5045484;28;20420;-76
2021/08/20 07:41:06;;;;;;;2.47;2.30;;;25.20;54.80;;;;;;5045552;28;20413;-76
2021/08/20 07:43:34;;;;;;;3.20;2.90;;;25.30;54.60;;;;;;5045829;28;20431;-76
2021/08/20 07:46:02;;;;;;;3.27;3.07;;;25.50;54.40;;;;;;5045343;28;20469;-76
2021/08/20 07:48:31;;;;;;;3.03;2.77;;;25.60;54.00;;;;;;5045159;28;20505;-76
2021/08/20 07:51:00;;;;;;;2.97;2.77;;;25.60;54.00;;;;;;5045275;28;20441;-76
2021/08/20 07:53:27;;;;;;;3.20;3.00;;;25.70;53.80;;;;;;5045224;28;20433;-76
2021/08/20 07:55:56;;;;;;;2.53;2.43;;;25.70;54.00;;;;;;5045248;28;20534;-76
2021/08/20 07:58:24;;;;;;;2.40;2.27;;;25.70;53.90;;;;;;5044975;28;20436;-76
2021/08/20 08:00:52;;;;;;;2.90;2.77;;;25.70;54.00;;;;;;5045851;28;20456;-77
2021/08/20 08:03:20;;;;;;;3.33;2.67;;;25.80;54.10;;;;;;5045721;28;20429;-77
2021/08/20 08:05:50;;;;;;;3.00;2.80;;;25.90;53.50;;;;;;5025571;28;20434;-78
2021/08/20 08:08:18;;;;;;;2.97;2.80;;;26.10;53.70;;;;;;5024657;28;20418;-77
2021/08/20 08:10:46;;;;;;;2.40;2.30;;;26.20;53.60;;;;;;5025356;28;20422;-77
2021/08/20 08:13:14;;;;;;;4.40;2.80;;;26.30;53.60;;;;;;5024617;28;20477;-78
2021/08/20 08:15:42;;;;;;;3.00;2.80;;;26.50;53.40;;;;;;5024923;28;20459;-77
2021/08/20 08:18:10;;;;;;;2.50;2.40;;;26.50;53.60;;;;;;5024049;28;20403;-77
2021/08/20 08:20:38;;;;;;;2.70;2.50;;;26.60;53.30;;;;;;5025333;28;20422;-78
2021/08/20 08:23:08;;;;;;;2.83;2.63;;;26.60;53.20;;;;;;5024827;28;20490;-78
2021/08/20 08:25:36;;;;;;;2.70;2.60;;;26.70;53.40;;;;;;5023797;28;20418;-78
2021/08/20 08:28:04;;;;;;;2.50;2.40;;;26.80;53.40;;;;;;5018434;28;20453;-78
2021/08/20 08:30:35;;;;;;;4.83;3.07;;;26.90;53.50;;;;;;5020431;28;20433;-78
2021/08/20 08:33:04;;;;;;;3.00;2.80;;;27.00;53.50;;;;;;5022224;28;20441;-78
2021/08/20 08:35:32;;;;;;;2.63;2.53;;;27.10;53.30;;;;;;5024114;28;20449;-79
2021/08/20 08:38:08;;;;;;;2.60;2.50;;;27.20;53.20;;;;;;5023664;28;20471;-78
2021/08/20 08:40:37;;;;;;;2.63;2.53;;;27.30;53.10;;;;;;5024146;28;20443;-78
2021/08/20 08:43:05;;;;;;;3.03;2.90;;;27.50;53.00;;;;;;5021698;28;20429;-78
2021/08/20 08:45:34;;;;;;;2.90;2.80;;;27.60;53.10;;;;;;5024377;28;20446;-78
2021/08/20 08:48:02;;;;;;;5.00;2.90;;;27.70;52.80;;;;;;5023916;28;20454;-78
2021/08/20 08:50:31;;;;;;;2.80;2.60;;;27.70;52.70;;;;;;5029530;28;20532;-78
2021/08/20 08:52:59;;;;;;;3.07;2.77;;;27.80;52.60;;;;;;5034234;28;20479;-78
2021/08/20 08:55:28;;;;;;;2.60;2.40;;;27.70;52.60;;;;;;5023862;28;20432;-78
2021/08/20 08:57:56;;;;;;;2.57;2.40;;;27.70;52.70;;;;;;5023215;28;20395;-78
2021/08/20 09:00:30;;;;;;;2.60;2.50;;;27.70;52.90;;;;;;5023834;28;20419;-78
2021/08/20 09:02:59;;;;;;;2.43;2.23;;;27.70;52.90;;;;;;5023581;28;20405;-79
2021/08/20 09:05:28;;;;;;;2.70;2.50;;;27.80;53.00;;;;;;5023743;28;20414;-79
2021/08/20 09:07:55;;;;;;;2.50;2.40;;;27.80;52.80;;;;;;5023470;28;20515;-78
2021/08/20 09:10:25;;;;;;;2.80;2.60;;;28.00;52.90;;;;;;5024075;28;20426;-79
2021/08/20 09:12:55;;;;;;;2.50;2.30;;;28.10;52.90;;;;;;5023758;28;20418;-80
2021/08/20 09:15:25;;;;;;;3.27;3.07;;;28.20;52.70;;;;;;5022205;28;20501;-81
2021/08/20 09:17:54;;;;;;;2.67;2.47;;;28.30;52.70;;;;;;5023634;28;20430;-81
2021/08/20 09:20:24;;;;;;;2.77;2.67;;;28.40;52.80;;;;;;5023864;28;20413;-81
2021/08/20 09:22:52;;;;;;;2.90;2.70;;;28.50;52.50;;;;;;5024132;28;20474;-78
2021/08/20 09:25:36;;;;;;;2.87;2.70;;;28.60;52.40;;;;;;5024177;28;20446;-79
2021/08/20 09:28:19;;;;;;;2.80;2.60;;;28.70;52.60;;;;;;5023787;28;20541;-79
2021/08/20 09:31:06;;;;;;;2.60;2.50;;;28.80;52.40;;;;;;5024060;28;20522;-79
2021/08/20 09:33:36;;;;;;;2.53;2.43;;;29.00;52.40;;;;;;5024637;28;20405;-78
2021/08/20 09:36:05;;;;;;;2.30;2.20;;;29.10;52.00;;;;;;5023947;28;20489;-79
2021/08/20 09:38:34;;;;;;;3.00;2.67;;;29.20;51.90;;;;;;5023898;28;20394;-79
2021/08/20 09:41:04;;;;;;;2.57;2.47;;;29.20;52.00;;;;;;5024727;28;20482;-79
2021/08/20 09:43:35;;;;;;;2.83;2.73;;;29.50;51.90;;;;;;5024053;28;20401;-79
2021/08/20 09:46:10;;;;;;;2.50;2.40;;;29.50;51.60;;;;;;5024358;28;20435;-79
2021/08/20 09:48:52;;;;;;;2.70;2.50;;;29.50;51.70;;;;;;5023684;28;20467;-79
2021/08/20 09:51:40;;;;;;;2.97;2.87;;;29.50;51.80;;;;;;5023884;28;20419;-80
2021/08/20 09:54:09;;;;;;;2.50;2.40;;;29.50;51.80;;;;;;5023532;28;20531;-79
2021/08/20 09:56:56;;;;;;;2.40;2.30;;;29.70;51.90;;;;;;5023334;28;20420;-79
2021/08/20 09:59:29;;;;;;;2.03;1.93;;;30.00;51.70;;;;;;5023686;28;20409;-79
2021/08/20 10:01:59;;;;;;;2.33;2.23;;;30.30;51.70;;;;;;5023213;28;20422;-79
2021/08/20 10:04:27;;;;;;;2.20;2.10;;;30.60;51.40;;;;;;5040950;28;20452;-79
2021/08/20 10:06:55;;;;;;;2.40;2.30;;;30.80;51.00;;;;;;5043892;28;20536;-80
2021/08/20 10:09:23;;;;;;;2.60;2.40;;;31.00;51.00;;;;;;5042647;28;20453;-79
2021/08/20 10:11:52;;;;;;;2.23;2.17;;;31.20;50.40;;;;;;5042864;28;20441;-80
2021/08/20 10:14:23;;;;;;;2.30;2.20;;;31.30;50.20;;;;;;5043362;28;20521;-80
2021/08/20 10:16:52;;;;;;;2.50;2.40;;;31.30;49.90;;;;;;5043564;28;20475;-80
2021/08/20 10:19:20;;;;;;;2.40;2.30;;;31.40;50.10;;;;;;5043073;28;20434;-80
2021/08/20 10:21:48;;;;;;;2.30;2.20;;;31.60;49.80;;;;;;5043135;28;20442;-80
2021/08/20 10:24:17;;;;;;;2.40;2.23;;;31.80;49.50;;;;;;5042308;28;20426;-80
2021/08/20 10:26:48;;;;;;;2.30;2.20;;;32.00;49.60;;;;;;5042494;28;20514;-78
2021/08/20 10:29:16;;;;;;;2.00;1.90;;;32.20;49.20;;;;;;5042269;28;20489;-79
2021/08/20 10:31:44;;;;;;;1.80;1.70;;;32.30;48.90;;;;;;5042146;28;20434;-79
2021/08/20 10:34:41;;;;;;;2.27;2.07;;;32.30;48.70;;;;;;5042800;28;20443;-78
2021/08/20 10:37:11;;;;;;;2.63;2.53;;;32.30;48.90;;;;;;4985803;28;20474;-82
2021/08/20 10:39:40;;;;;;;2.40;2.30;;;32.30;48.50;;;;;;5042760;28;20460;-79
2021/08/20 10:42:08;;;;;;;2.80;2.00;;;32.50;48.50;;;;;;5046032;28;20573;-80
2021/08/20 10:44:40;;;;;;;2.47;2.37;;;32.60;48.30;;;;;;5040939;28;20453;-80
2021/08/20 10:47:09;;;;;;;2.40;2.30;;;32.50;48.20;;;;;;5031070;28;20427;-80
2021/08/20 10:49:47;;;;;;;2.40;2.30;;;32.30;48.20;;;;;;5032491;28;20427;-80
2021/08/20 10:52:29;;;;;;;2.30;2.17;;;32.10;48.50;;;;;;5040179;28;20484;-82
2021/08/20 10:55:29;;;;;;;1.93;1.83;;;31.90;48.70;;;;;;5046528;28;20454;-80
2021/08/20 10:58:18;;;;;;;1.90;1.90;;;31.80;48.90;;;;;;5037955;28;20541;-79
2021/08/20 11:01:03;;;;;;;2.50;2.40;;;31.80;49.10;;;;;;5035400;28;20426;-76
2021/08/20 11:03:54;;;;;;;2.47;2.37;;;31.90;49.00;;;;;;5024348;28;20466;-78
2021/08/20 11:06:48;;;;;;;2.10;2.00;;;32.10;48.70;;;;;;5023460;28;20426;-78
2021/08/20 11:09:30;;;;;;;2.40;2.30;;;31.90;48.80;;;;;;5031104;28;20479;-78
2021/08/20 11:11:59;;;;;;;2.60;2.17;;;31.80;48.80;;;;;;5024484;28;20459;-77
2021/08/20 11:14:37;;;;;;;2.00;2.00;;;31.70;48.90;;;;;;5035438;28;20467;-78
2021/08/20 11:17:05;;;;;;;2.47;2.30;;;31.70;49.10;;;;;;5022940;28;20495;-77
2021/08/20 11:19:56;;;;;;;2.70;2.50;;;31.70;49.00;;;;;;5024486;28;20497;-77
2021/08/20 11:22:28;;;;;;;2.60;2.50;;;32.30;49.10;;;;;;5029387;28;20482;-77
2021/08/20 11:25:17;;;;;;;2.10;2.00;;;33.20;47.40;;;;;;5020346;28;20486;-77
2021/08/20 11:28:01;;;;;;;1.97;1.87;;;34.20;46.70;;;;;;5020963;28;20575;-79
2021/08/20 11:30:34;;;;;;;2.67;2.10;;;36.20;44.80;;;;;;5025619;28;20574;-79
2021/08/20 11:33:19;;;;;;;2.10;2.03;;;36.20;41.60;;;;;;5022624;28;20557;-78
2021/08/20 11:35:54;;;;;;;2.10;2.00;;;35.50;42.30;;;;;;5027468;28;20470;-78
2021/08/20 11:38:27;;;;;;;3.33;2.10;;;34.80;43.20;;;;;;5023373;28;20495;-78
2021/08/20 11:41:01;;;;;;;2.30;2.20;;;34.20;44.00;;;;;;5029600;28;20510;-78
2021/08/20 11:43:50;;;;;;;2.40;2.30;;;33.70;44.70;;;;;;5019097;28;20446;-78
2021/08/20 11:46:18;;;;;;;2.30;2.20;;;33.40;45.30;;;;;;5024933;28;20521;-78
2021/08/20 11:48:47;;;;;;;2.73;2.40;;;33.10;45.50;;;;;;5021658;28;20887;-82
2021/08/20 11:51:23;;;;;;;2.00;1.90;;;32.80;46.00;;;;;;5023048;28;20480;-78
2021/08/20 11:53:51;;;;;;;2.20;2.10;;;32.70;46.50;;;;;;5023583;28;20451;-79
2021/08/20 11:56:20;;;;;;;2.00;1.93;;;32.60;46.80;;;;;;5020502;28;20459;-78
2021/08/20 11:58:48;;;;;;;2.00;1.90;;;33.00;48.20;;;;;;5026185;28;20476;-79
2021/08/20 12:01:22;;;;;;;2.07;1.97;;;34.10;47.40;;;;;;5034038;28;20455;-79
2021/08/20 12:03:52;;;;;;;1.77;1.77;;;35.40;45.80;;;;;;5027597;28;20451;-79
2021/08/20 12:06:21;;;;;;;1.63;1.53;;;36.90;41.90;;;;;;5019201;28;20448;-79
2021/08/20 12:08:49;;;;;;;1.87;1.77;;;37.70;38.50;;;;;;5025951;28;20530;-79
2021/08/20 12:11:38;;;;;;;1.87;1.77;;;38.00;40.60;;;;;;5022680;28;20454;-79
2021/08/20 12:14:06;;;;;;;1.63;1.53;;;39.20;37.50;;;;;;5022794;28;20513;-79
2021/08/20 12:16:44;;;;;;;1.77;1.77;;;38.80;35.80;;;;;;5014501;28;20463;-79
2021/08/20 12:19:23;;;;;;;5.90;1.50;;;38.00;37.30;;;;;;5024345;28;20506;-79
2021/08/20 12:21:55;;;;;;;1.87;1.87;;;39.00;39.30;;;;;;5019595;28;20451;-80
2021/08/20 12:24:33;;;;;;;1.33;1.33;;;40.40;35.30;;;;;;5037880;28;20466;-81
2021/08/20 12:27:14;;;;;;;1.53;1.53;;;40.70;33.30;;;;;;5029523;28;20477;-79
2021/08/20 12:29:42;;;;;;;1.93;1.83;;;39.80;34.30;;;;;;5020204;28;20499;-79
2021/08/20 12:32:10;;;;;;;2.00;1.60;;;39.20;35.30;;;;;;5024394;28;20498;-79
2021/08/20 12:34:41;;;;;;;1.80;1.70;;;38.50;36.10;;;;;;5023290;28;20529;-78
2021/08/20 12:37:09;;;;;;;1.67;1.67;;;37.70;36.70;;;;;;5036017;28;20438;-79
2021/08/20 12:39:40;;;;;;;2.00;1.90;;;37.00;38.00;;;;;;5043976;28;20479;-79
2021/08/20 12:42:23;;;;;;;4.67;1.90;;;36.30;39.20;;;;;;5044869;28;20426;-78
2021/08/20 12:45:07;;;;;;;2.10;2.10;;;35.60;40.10;;;;;;5044713;28;20439;-78
2021/08/20 12:47:35;;;;;;;2.80;2.23;;;35.20;41.00;;;;;;5044809;28;20438;-78
2021/08/20 12:50:05;;;;;;;1.87;1.77;;;34.80;41.60;;;;;;5044654;28;20450;-78
2021/08/20 12:52:33;;;;;;;1.70;1.70;;;34.50;42.20;;;;;;5044849;28;20516;-79
2021/08/20 12:55:25;;;;;;;2.57;2.47;;;34.20;42.80;;;;;;5044981;28;20446;-79
2021/08/20 12:57:54;;;;;;;2.43;2.33;;;34.00;43.40;;;;;;5044427;28;20426;-78
2021/08/20 13:00:24;;;;;;;2.27;1.97;;;33.90;43.60;;;;;;5044273;28;20582;-78
2021/08/20 13:02:52;;;;;;;2.27;2.17;;;33.70;43.80;;;;;;5027102;28;20471;-77